sensor_id;sensor_type;location;lat;lon;timestamp;P1;durP1;ratioP1;P2;durP2;ratioP2
8584;SDS011;7180;52.742;11.420;2023-05-18T00:02:00;8.43;;;7.70;;
8584;SDS011;7180;52.742;11.420;2023-05-18T00:04:28;8.37;;;7.70;;
8584;SDS011;7180;52.742;11.420;2023-05-18T00:06:53;9.33;;;8.50;;
8584;SDS011;7180;52.742;11.420;2023-05-18T00:09:25;8.70;;;7.80;;
8584;SDS011;7180;52.742;11.420;2023-05-18T00:11:51;8.43;;;7.70;;
8584;SDS011;7180;52.742;11.420;2023-05-18T00:14:17;8.73;;;8.10;;
8584;SDS011;7180;52.742;11.420;2023-05-18T00:16:43;8.93;;;8.20;;
8584;SDS011;7180;52.742;11.420;2023-05-18T00:19:08;9.00;;;8.10;;
8584;SDS011;7180;52.742;11.420;2023-05-18T00:21:34;9.33;;;8.43;;
8584;SDS011;7180;52.742;11.420;2023-05-18T00:23:59;9.37;;;8.60;;
8584;SDS011;7180;52.742;11.420;2023-05-18T00:26:25;9.33;;;8.47;;
8584;SDS011;7180;52.742;11.420;2023-05-18T00:28:50;9.23;;;8.30;;
8584;SDS011;7180;52.742;11.420;2023-05-18T00:31:15;9.40;;;8.50;;
8584;SDS011;7180;52.742;11.420;2023-05-18T00:33:41;8.83;;;8.13;;
8584;SDS011;7180;52.742;11.420;2023-05-18T00:36:06;8.70;;;7.90;;
8584;SDS011;7180;52.742;11.420;2023-05-18T00:38:31;8.93;;;8.13;;
8584;SDS011;7180;52.742;11.420;2023-05-18T00:40:57;9.33;;;8.43;;
8584;SDS011;7180;52.742;11.420;2023-05-18T00:43:22;9.47;;;8.60;;
8584;SDS011;7180;52.742;11.420;2023-05-18T00:45:47;9.00;;;8.20;;
8584;SDS011;7180;52.742;11.420;2023-05-18T00:48:13;9.23;;;8.53;;
8584;SDS011;7180;52.742;11.420;2023-05-18T00:50:38;8.90;;;8.10;;
8584;SDS011;7180;52.742;11.420;2023-05-18T00:53:04;9.07;;;8.17;;
8584;SDS011;7180;52.742;11.420;2023-05-18T00:55:30;9.37;;;8.53;;
8584;SDS011;7180;52.742;11.420;2023-05-18T00:57:55;9.13;;;8.37;;
8584;SDS011;7180;52.742;11.420;2023-05-18T01:00:22;8.43;;;7.83;;
8584;SDS011;7180;52.742;11.420;2023-05-18T01:02:48;9.00;;;8.10;;
8584;SDS011;7180;52.742;11.420;2023-05-18T01:05:15;9.30;;;8.60;;
8584;SDS011;7180;52.742;11.420;2023-05-18T01:07:41;9.40;;;8.60;;
8584;SDS011;7180;52.742;11.420;2023-05-18T01:10:08;9.00;;;8.20;;
8584;SDS011;7180;52.742;11.420;2023-05-18T01:12:42;9.40;;;8.60;;
8584;SDS011;7180;52.742;11.420;2023-05-18T01:15:24;9.97;;;9.17;;
8584;SDS011;7180;52.742;11.420;2023-05-18T01:28:49;9.17;;;8.47;;
8584;SDS011;7180;52.742;11.420;2023-05-18T01:31:15;9.33;;;8.50;;
8584;SDS011;7180;52.742;11.420;2023-05-18T01:33:41;8.87;;;8.10;;
8584;SDS011;7180;52.742;11.420;2023-05-18T01:36:06;8.73;;;8.03;;
8584;SDS011;7180;52.742;11.420;2023-05-18T01:38:32;8.70;;;7.90;;
8584;SDS011;7180;52.742;11.420;2023-05-18T01:41:11;8.67;;;7.97;;
8584;SDS011;7180;52.742;11.420;2023-05-18T01:43:43;8.50;;;8.00;;
8584;SDS011;7180;52.742;11.420;2023-05-18T01:46:19;9.10;;;8.40;;
8584;SDS011;7180;52.742;11.420;2023-05-18T01:48:52;9.00;;;8.20;;
8584;SDS011;7180;52.742;11.420;2023-05-18T01:51:20;8.70;;;7.90;;
8584;SDS011;7180;52.742;11.420;2023-05-18T01:53:56;9.10;;;8.40;;
8584;SDS011;7180;52.742;11.420;2023-05-18T01:56:27;8.90;;;8.30;;
8584;SDS011;7180;52.742;11.420;2023-05-18T01:58:54;9.13;;;8.33;;
8584;SDS011;7180;52.742;11.420;2023-05-18T02:01:19;8.70;;;8.10;;
8584;SDS011;7180;52.742;11.420;2023-05-18T02:03:46;8.97;;;8.17;;
8584;SDS011;7180;52.742;11.420;2023-05-18T02:06:11;8.60;;;8.00;;
8584;SDS011;7180;52.742;11.420;2023-05-18T02:08:37;9.13;;;8.33;;
8584;SDS011;7180;52.742;11.420;2023-05-18T02:11:02;8.67;;;7.97;;
8584;SDS011;7180;52.742;11.420;2023-05-18T02:13:27;9.27;;;8.57;;
8584;SDS011;7180;52.742;11.420;2023-05-18T02:15:52;8.63;;;8.03;;
8584;SDS011;7180;52.742;11.420;2023-05-18T02:18:18;8.23;;;7.73;;
8584;SDS011;7180;52.742;11.420;2023-05-18T02:20:43;8.73;;;8.10;;
8584;SDS011;7180;52.742;11.420;2023-05-18T02:23:08;9.10;;;8.30;;
8584;SDS011;7180;52.742;11.420;2023-05-18T02:25:33;8.87;;;8.17;;
8584;SDS011;7180;52.742;11.420;2023-05-18T02:27:59;8.50;;;7.90;;
8584;SDS011;7180;52.742;11.420;2023-05-18T02:30:24;9.00;;;8.30;;
8584;SDS011;7180;52.742;11.420;2023-05-18T02:32:50;8.70;;;8.10;;
8584;SDS011;7180;52.742;11.420;2023-05-18T02:35:15;8.30;;;7.70;;
8584;SDS011;7180;52.742;11.420;2023-05-18T02:37:42;8.33;;;7.83;;
8584;SDS011;7180;52.742;11.420;2023-05-18T02:40:11;8.33;;;7.83;;
8584;SDS011;7180;52.742;11.420;2023-05-18T02:42:38;8.20;;;7.63;;
8584;SDS011;7180;52.742;11.420;2023-05-18T02:45:03;8.77;;;7.93;;
8584;SDS011;7180;52.742;11.420;2023-05-18T02:47:29;8.30;;;7.80;;
8584;SDS011;7180;52.742;11.420;2023-05-18T02:49:55;7.90;;;7.50;;
8584;SDS011;7180;52.742;11.420;2023-05-18T02:52:20;8.83;;;8.00;;
8584;SDS011;7180;52.742;11.420;2023-05-18T02:54:45;8.70;;;8.10;;
8584;SDS011;7180;52.742;11.420;2023-05-18T02:57:10;8.23;;;7.67;;
8584;SDS011;7180;52.742;11.420;2023-05-18T02:59:37;7.73;;;7.23;;
8584;SDS011;7180;52.742;11.420;2023-05-18T03:02:03;8.13;;;7.60;;
8584;SDS011;7180;52.742;11.420;2023-05-18T03:04:28;7.80;;;7.33;;
8584;SDS011;7180;52.742;11.420;2023-05-18T03:06:54;8.47;;;7.87;;
8584;SDS011;7180;52.742;11.420;2023-05-18T03:09:21;8.10;;;7.60;;
8584;SDS011;7180;52.742;11.420;2023-05-18T03:11:46;7.90;;;7.40;;
8584;SDS011;7180;52.742;11.420;2023-05-18T03:14:12;8.57;;;7.83;;
8584;SDS011;7180;52.742;11.420;2023-05-18T03:16:37;8.30;;;7.80;;
8584;SDS011;7180;52.742;11.420;2023-05-18T03:19:03;8.97;;;8.27;;
8584;SDS011;7180;52.742;11.420;2023-05-18T03:21:28;9.27;;;8.53;;
8584;SDS011;7180;52.742;11.420;2023-05-18T03:23:57;8.80;;;8.10;;
8584;SDS011;7180;52.742;11.420;2023-05-18T03:26:23;9.87;;;9.10;;
8584;SDS011;7180;52.742;11.420;2023-05-18T03:28:50;9.50;;;8.70;;
8584;SDS011;7180;52.742;11.420;2023-05-18T03:31:15;8.77;;;7.87;;
8584;SDS011;7180;52.742;11.420;2023-05-18T03:33:41;9.00;;;8.20;;
8584;SDS011;7180;52.742;11.420;2023-05-18T03:36:06;8.87;;;8.17;;
8584;SDS011;7180;52.742;11.420;2023-05-18T03:38:32;9.20;;;8.50;;
8584;SDS011;7180;52.742;11.420;2023-05-18T03:40:57;9.37;;;8.80;;
8584;SDS011;7180;52.742;11.420;2023-05-18T03:43:22;9.60;;;8.70;;
8584;SDS011;7180;52.742;11.420;2023-05-18T03:45:49;9.17;;;8.47;;
8584;SDS011;7180;52.742;11.420;2023-05-18T03:48:15;8.70;;;8.13;;
8584;SDS011;7180;52.742;11.420;2023-05-18T03:50:41;8.97;;;8.20;;
8584;SDS011;7180;52.742;11.420;2023-05-18T03:53:06;9.07;;;8.43;;
8584;SDS011;7180;52.742;11.420;2023-05-18T03:55:31;9.03;;;8.30;;
8584;SDS011;7180;52.742;11.420;2023-05-18T03:57:57;8.70;;;8.10;;
8584;SDS011;7180;52.742;11.420;2023-05-18T04:00:23;8.60;;;7.93;;
8584;SDS011;7180;52.742;11.420;2023-05-18T04:02:48;8.10;;;7.63;;
8584;SDS011;7180;52.742;11.420;2023-05-18T04:05:15;8.60;;;7.93;;
8584;SDS011;7180;52.742;11.420;2023-05-18T04:07:40;9.10;;;8.30;;
8584;SDS011;7180;52.742;11.420;2023-05-18T04:10:10;8.80;;;8.00;;
8584;SDS011;7180;52.742;11.420;2023-05-18T04:12:36;8.67;;;7.97;;
8584;SDS011;7180;52.742;11.420;2023-05-18T04:15:02;8.63;;;8.03;;
8584;SDS011;7180;52.742;11.420;2023-05-18T04:17:28;8.20;;;7.70;;
8584;SDS011;7180;52.742;11.420;2023-05-18T04:19:53;8.57;;;7.87;;
8584;SDS011;7180;52.742;11.420;2023-05-18T04:22:19;8.83;;;8.13;;
8584;SDS011;7180;52.742;11.420;2023-05-18T04:24:45;8.73;;;8.00;;
8584;SDS011;7180;52.742;11.420;2023-05-18T04:27:11;8.93;;;8.20;;
8584;SDS011;7180;52.742;11.420;2023-05-18T04:29:37;8.73;;;8.13;;
8584;SDS011;7180;52.742;11.420;2023-05-18T04:32:03;8.07;;;7.57;;
8584;SDS011;7180;52.742;11.420;2023-05-18T04:34:32;8.10;;;7.43;;
8584;SDS011;7180;52.742;11.420;2023-05-18T04:36:59;8.17;;;7.40;;
8584;SDS011;7180;52.742;11.420;2023-05-18T04:39:25;8.00;;;7.40;;
8584;SDS011;7180;52.742;11.420;2023-05-18T04:41:51;7.70;;;7.10;;
8584;SDS011;7180;52.742;11.420;2023-05-18T04:44:23;8.40;;;7.80;;
8584;SDS011;7180;52.742;11.420;2023-05-18T04:46:49;8.97;;;8.43;;
8584;SDS011;7180;52.742;11.420;2023-05-18T04:49:16;8.80;;;8.17;;
8584;SDS011;7180;52.742;11.420;2023-05-18T04:51:45;8.90;;;8.40;;
8584;SDS011;7180;52.742;11.420;2023-05-18T04:54:13;9.20;;;8.60;;
8584;SDS011;7180;52.742;11.420;2023-05-18T04:56:40;9.70;;;8.90;;
8584;SDS011;7180;52.742;11.420;2023-05-18T04:59:05;9.13;;;8.50;;
8584;SDS011;7180;52.742;11.420;2023-05-18T05:01:33;7.50;;;6.97;;
8584;SDS011;7180;52.742;11.420;2023-05-18T05:03:58;7.80;;;7.17;;
8584;SDS011;7180;52.742;11.420;2023-05-18T05:06:23;9.23;;;8.53;;
8584;SDS011;7180;52.742;11.420;2023-05-18T05:08:48;8.07;;;7.50;;
8584;SDS011;7180;52.742;11.420;2023-05-18T05:11:14;8.60;;;7.90;;
8584;SDS011;7180;52.742;11.420;2023-05-18T05:13:39;8.70;;;8.00;;
8584;SDS011;7180;52.742;11.420;2023-05-18T05:16:04;8.07;;;7.57;;
8584;SDS011;7180;52.742;11.420;2023-05-18T05:18:30;7.80;;;7.30;;
8584;SDS011;7180;52.742;11.420;2023-05-18T05:20:55;7.73;;;7.00;;
8584;SDS011;7180;52.742;11.420;2023-05-18T05:23:21;7.60;;;7.10;;
8584;SDS011;7180;52.742;11.420;2023-05-18T05:25:46;7.97;;;7.20;;
8584;SDS011;7180;52.742;11.420;2023-05-18T05:28:11;7.63;;;6.93;;
8584;SDS011;7180;52.742;11.420;2023-05-18T05:30:36;7.70;;;7.00;;
8584;SDS011;7180;52.742;11.420;2023-05-18T05:33:02;7.80;;;7.10;;
8584;SDS011;7180;52.742;11.420;2023-05-18T05:35:27;7.83;;;7.33;;
8584;SDS011;7180;52.742;11.420;2023-05-18T05:37:52;8.13;;;7.63;;
8584;SDS011;7180;52.742;11.420;2023-05-18T05:40:18;8.40;;;7.73;;
8584;SDS011;7180;52.742;11.420;2023-05-18T05:42:43;7.77;;;7.17;;
8584;SDS011;7180;52.742;11.420;2023-05-18T05:45:08;7.77;;;7.33;;
8584;SDS011;7180;52.742;11.420;2023-05-18T05:47:34;8.40;;;7.70;;
8584;SDS011;7180;52.742;11.420;2023-05-18T05:49:59;8.20;;;7.63;;
8584;SDS011;7180;52.742;11.420;2023-05-18T05:52:25;8.37;;;7.73;;
8584;SDS011;7180;52.742;11.420;2023-05-18T05:54:52;8.07;;;7.47;;
8584;SDS011;7180;52.742;11.420;2023-05-18T05:57:18;8.27;;;7.47;;
8584;SDS011;7180;52.742;11.420;2023-05-18T05:59:43;7.97;;;7.37;;
8584;SDS011;7180;52.742;11.420;2023-05-18T06:02:08;7.97;;;7.40;;
8584;SDS011;7180;52.742;11.420;2023-05-18T06:04:34;8.33;;;7.57;;
8584;SDS011;7180;52.742;11.420;2023-05-18T06:06:59;8.50;;;7.70;;
8584;SDS011;7180;52.742;11.420;2023-05-18T06:09:24;8.50;;;7.90;;
8584;SDS011;7180;52.742;11.420;2023-05-18T06:11:50;8.60;;;8.00;;
8584;SDS011;7180;52.742;11.420;2023-05-18T06:14:16;8.50;;;7.80;;
8584;SDS011;7180;52.742;11.420;2023-05-18T06:16:42;8.20;;;7.60;;
8584;SDS011;7180;52.742;11.420;2023-05-18T06:19:07;8.10;;;7.60;;
8584;SDS011;7180;52.742;11.420;2023-05-18T06:21:32;8.57;;;7.97;;
8584;SDS011;7180;52.742;11.420;2023-05-18T06:23:57;7.97;;;7.37;;
8584;SDS011;7180;52.742;11.420;2023-05-18T06:26:23;8.50;;;7.70;;
8584;SDS011;7180;52.742;11.420;2023-05-18T06:28:48;8.40;;;7.80;;
8584;SDS011;7180;52.742;11.420;2023-05-18T06:31:14;8.77;;;8.20;;
8584;SDS011;7180;52.742;11.420;2023-05-18T06:33:39;8.60;;;7.90;;
8584;SDS011;7180;52.742;11.420;2023-05-18T06:36:05;8.70;;;8.00;;
8584;SDS011;7180;52.742;11.420;2023-05-18T06:38:30;8.50;;;7.87;;
8584;SDS011;7180;52.742;11.420;2023-05-18T06:40:55;8.27;;;7.77;;
8584;SDS011;7180;52.742;11.420;2023-05-18T06:43:21;8.43;;;7.80;;
8584;SDS011;7180;52.742;11.420;2023-05-18T06:45:46;8.43;;;7.83;;
8584;SDS011;7180;52.742;11.420;2023-05-18T06:48:11;8.43;;;7.83;;
8584;SDS011;7180;52.742;11.420;2023-05-18T06:50:37;8.60;;;7.90;;
8584;SDS011;7180;52.742;11.420;2023-05-18T06:53:02;8.47;;;7.87;;
8584;SDS011;7180;52.742;11.420;2023-05-18T06:55:28;8.43;;;7.90;;
8584;SDS011;7180;52.742;11.420;2023-05-18T06:57:53;8.53;;;7.80;;
8584;SDS011;7180;52.742;11.420;2023-05-18T07:00:22;8.77;;;8.00;;
8584;SDS011;7180;52.742;11.420;2023-05-18T07:02:47;8.47;;;7.77;;
8584;SDS011;7180;52.742;11.420;2023-05-18T07:05:13;9.03;;;8.03;;
8584;SDS011;7180;52.742;11.420;2023-05-18T07:07:38;8.33;;;7.73;;
8584;SDS011;7180;52.742;11.420;2023-05-18T07:10:04;8.40;;;7.73;;
8584;SDS011;7180;52.742;11.420;2023-05-18T07:12:30;8.73;;;8.03;;
8584;SDS011;7180;52.742;11.420;2023-05-18T07:14:55;8.03;;;7.43;;
8584;SDS011;7180;52.742;11.420;2023-05-18T07:17:20;8.10;;;7.43;;
8584;SDS011;7180;52.742;11.420;2023-05-18T07:19:46;8.20;;;7.60;;
8584;SDS011;7180;52.742;11.420;2023-05-18T07:22:11;8.10;;;7.43;;
8584;SDS011;7180;52.742;11.420;2023-05-18T07:24:37;8.40;;;7.70;;
8584;SDS011;7180;52.742;11.420;2023-05-18T07:27:02;8.47;;;7.53;;
8584;SDS011;7180;52.742;11.420;2023-05-18T07:29:28;8.57;;;7.77;;
8584;SDS011;7180;52.742;11.420;2023-05-18T07:31:54;8.20;;;7.50;;
8584;SDS011;7180;52.742;11.420;2023-05-18T07:34:19;8.23;;;7.50;;
8584;SDS011;7180;52.742;11.420;2023-05-18T07:36:44;8.10;;;7.40;;
8584;SDS011;7180;52.742;11.420;2023-05-18T07:39:10;8.40;;;7.60;;
8584;SDS011;7180;52.742;11.420;2023-05-18T07:41:42;8.47;;;7.73;;
8584;SDS011;7180;52.742;11.420;2023-05-18T07:44:08;8.30;;;7.70;;
8584;SDS011;7180;52.742;11.420;2023-05-18T07:46:33;8.30;;;7.50;;
8584;SDS011;7180;52.742;11.420;2023-05-18T07:48:58;8.03;;;7.40;;
8584;SDS011;7180;52.742;11.420;2023-05-18T07:51:24;8.43;;;7.50;;
8584;SDS011;7180;52.742;11.420;2023-05-18T07:53:49;10.50;;;7.80;;
8584;SDS011;7180;52.742;11.420;2023-05-18T07:56:15;8.50;;;7.70;;
8584;SDS011;7180;52.742;11.420;2023-05-18T07:58:40;8.37;;;7.77;;
8584;SDS011;7180;52.742;11.420;2023-05-18T08:01:05;8.60;;;7.90;;
8584;SDS011;7180;52.742;11.420;2023-05-18T08:03:31;8.70;;;8.00;;
8584;SDS011;7180;52.742;11.420;2023-05-18T08:05:56;8.30;;;7.60;;
8584;SDS011;7180;52.742;11.420;2023-05-18T08:08:22;8.37;;;7.77;;
8584;SDS011;7180;52.742;11.420;2023-05-18T08:10:48;9.07;;;8.20;;
8584;SDS011;7180;52.742;11.420;2023-05-18T08:13:14;7.70;;;7.27;;
8584;SDS011;7180;52.742;11.420;2023-05-18T08:15:40;8.37;;;7.67;;
8584;SDS011;7180;52.742;11.420;2023-05-18T08:18:05;8.00;;;7.40;;
8584;SDS011;7180;52.742;11.420;2023-05-18T08:20:30;7.93;;;7.37;;
8584;SDS011;7180;52.742;11.420;2023-05-18T08:22:56;8.23;;;7.43;;
8584;SDS011;7180;52.742;11.420;2023-05-18T08:25:21;8.47;;;7.70;;
8584;SDS011;7180;52.742;11.420;2023-05-18T08:27:47;8.43;;;7.80;;
8584;SDS011;7180;52.742;11.420;2023-05-18T08:30:13;9.33;;;7.70;;
8584;SDS011;7180;52.742;11.420;2023-05-18T08:32:38;8.37;;;7.57;;
8584;SDS011;7180;52.742;11.420;2023-05-18T08:35:04;8.10;;;7.30;;
8584;SDS011;7180;52.742;11.420;2023-05-18T08:37:29;8.47;;;7.63;;
8584;SDS011;7180;52.742;11.420;2023-05-18T08:39:55;8.40;;;7.60;;
8584;SDS011;7180;52.742;11.420;2023-05-18T08:42:21;8.20;;;7.60;;
8584;SDS011;7180;52.742;11.420;2023-05-18T08:44:57;7.90;;;7.30;;
8584;SDS011;7180;52.742;11.420;2023-05-18T08:47:35;8.00;;;7.37;;
8584;SDS011;7180;52.742;11.420;2023-05-18T08:50:01;8.50;;;7.80;;
8584;SDS011;7180;52.742;11.420;2023-05-18T08:52:27;8.07;;;7.37;;
8584;SDS011;7180;52.742;11.420;2023-05-18T08:54:59;8.53;;;7.67;;
8584;SDS011;7180;52.742;11.420;2023-05-18T08:57:26;8.10;;;7.40;;
8584;SDS011;7180;52.742;11.420;2023-05-18T08:59:54;8.00;;;7.33;;
8584;SDS011;7180;52.742;11.420;2023-05-18T09:02:21;8.20;;;7.60;;
8584;SDS011;7180;52.742;11.420;2023-05-18T09:04:47;7.80;;;7.10;;
8584;SDS011;7180;52.742;11.420;2023-05-18T09:07:12;8.47;;;7.60;;
8584;SDS011;7180;52.742;11.420;2023-05-18T09:09:38;8.30;;;7.70;;
8584;SDS011;7180;52.742;11.420;2023-05-18T09:12:05;8.50;;;7.80;;
8584;SDS011;7180;52.742;11.420;2023-05-18T09:14:31;8.40;;;7.70;;
8584;SDS011;7180;52.742;11.420;2023-05-18T09:16:56;8.30;;;7.70;;
8584;SDS011;7180;52.742;11.420;2023-05-18T09:19:22;8.27;;;7.53;;
8584;SDS011;7180;52.742;11.420;2023-05-18T09:21:48;8.27;;;7.67;;
8584;SDS011;7180;52.742;11.420;2023-05-18T09:24:14;7.90;;;7.37;;
8584;SDS011;7180;52.742;11.420;2023-05-18T09:26:40;8.00;;;7.30;;
8584;SDS011;7180;52.742;11.420;2023-05-18T09:29:15;8.17;;;7.67;;
8584;SDS011;7180;52.742;11.420;2023-05-18T09:31:42;8.03;;;7.53;;
8584;SDS011;7180;52.742;11.420;2023-05-18T09:34:08;8.47;;;7.77;;
8584;SDS011;7180;52.742;11.420;2023-05-18T09:36:33;8.13;;;7.57;;
8584;SDS011;7180;52.742;11.420;2023-05-18T09:38:59;8.43;;;7.77;;
8584;SDS011;7180;52.742;11.420;2023-05-18T09:41:25;8.50;;;7.90;;
8584;SDS011;7180;52.742;11.420;2023-05-18T09:43:51;8.73;;;8.13;;
8584;SDS011;7180;52.742;11.420;2023-05-18T09:46:16;8.43;;;7.80;;
8584;SDS011;7180;52.742;11.420;2023-05-18T09:48:44;8.33;;;7.73;;
8584;SDS011;7180;52.742;11.420;2023-05-18T09:51:11;8.63;;;7.83;;
8584;SDS011;7180;52.742;11.420;2023-05-18T09:53:40;8.33;;;7.70;;
8584;SDS011;7180;52.742;11.420;2023-05-18T09:56:07;8.03;;;7.53;;
8584;SDS011;7180;52.742;11.420;2023-05-18T09:58:36;8.50;;;7.80;;
8584;SDS011;7180;52.742;11.420;2023-05-18T10:01:03;9.43;;;7.80;;
8584;SDS011;7180;52.742;11.420;2023-05-18T10:03:32;8.80;;;7.83;;
8584;SDS011;7180;52.742;11.420;2023-05-18T10:06:05;8.40;;;7.80;;
8584;SDS011;7180;52.742;11.420;2023-05-18T10:08:35;8.67;;;7.90;;
8584;SDS011;7180;52.742;11.420;2023-05-18T10:11:01;8.77;;;8.07;;
8584;SDS011;7180;52.742;11.420;2023-05-18T10:13:28;8.80;;;8.03;;
8584;SDS011;7180;52.742;11.420;2023-05-18T10:15:56;8.87;;;7.87;;
8584;SDS011;7180;52.742;11.420;2023-05-18T10:18:24;8.03;;;7.53;;
8584;SDS011;7180;52.742;11.420;2023-05-18T10:20:51;8.87;;;8.20;;
8584;SDS011;7180;52.742;11.420;2023-05-18T10:23:18;8.33;;;7.73;;
8584;SDS011;7180;52.742;11.420;2023-05-18T10:25:44;8.03;;;7.47;;
8584;SDS011;7180;52.742;11.420;2023-05-18T10:28:11;7.83;;;7.23;;
8584;SDS011;7180;52.742;11.420;2023-05-18T10:30:42;8.00;;;7.40;;
8584;SDS011;7180;52.742;11.420;2023-05-18T10:33:07;7.93;;;7.23;;
8584;SDS011;7180;52.742;11.420;2023-05-18T10:35:34;8.13;;;7.43;;
8584;SDS011;7180;52.742;11.420;2023-05-18T10:38:02;8.53;;;7.73;;
8584;SDS011;7180;52.742;11.420;2023-05-18T10:40:29;8.33;;;7.53;;
8584;SDS011;7180;52.742;11.420;2023-05-18T10:42:57;8.60;;;7.90;;
8584;SDS011;7180;52.742;11.420;2023-05-18T10:45:23;7.80;;;7.27;;
8584;SDS011;7180;52.742;11.420;2023-05-18T10:47:50;7.87;;;7.23;;
8584;SDS011;7180;52.742;11.420;2023-05-18T10:50:19;7.90;;;7.30;;
8584;SDS011;7180;52.742;11.420;2023-05-18T10:52:46;8.10;;;7.50;;
8584;SDS011;7180;52.742;11.420;2023-05-18T10:55:12;8.83;;;8.00;;
8584;SDS011;7180;52.742;11.420;2023-05-18T10:57:39;8.80;;;8.10;;
8584;SDS011;7180;52.742;11.420;2023-05-18T11:00:10;8.30;;;7.50;;
8584;SDS011;7180;52.742;11.420;2023-05-18T11:02:39;8.23;;;7.60;;
8584;SDS011;7180;52.742;11.420;2023-05-18T11:05:06;8.67;;;7.60;;
8584;SDS011;7180;52.742;11.420;2023-05-18T11:07:33;8.67;;;7.77;;
8584;SDS011;7180;52.742;11.420;2023-05-18T11:10:02;8.40;;;7.67;;
8584;SDS011;7180;52.742;11.420;2023-05-18T11:12:33;8.27;;;7.57;;
8584;SDS011;7180;52.742;11.420;2023-05-18T11:15:02;7.83;;;7.30;;
8584;SDS011;7180;52.742;11.420;2023-05-18T11:17:29;8.33;;;7.53;;
8584;SDS011;7180;52.742;11.420;2023-05-18T11:22:38;8.17;;;7.60;;
8584;SDS011;7180;52.742;11.420;2023-05-18T11:27:51;7.80;;;7.30;;
8584;SDS011;7180;52.742;11.420;2023-05-18T11:30:25;8.40;;;7.80;;
8584;SDS011;7180;52.742;11.420;2023-05-18T11:33:06;8.50;;;7.80;;
8584;SDS011;7180;52.742;11.420;2023-05-18T11:35:33;8.60;;;7.80;;
8584;SDS011;7180;52.742;11.420;2023-05-18T11:38:17;8.17;;;7.50;;
8584;SDS011;7180;52.742;11.420;2023-05-18T11:40:44;8.27;;;7.67;;
8584;SDS011;7180;52.742;11.420;2023-05-18T11:43:22;8.57;;;7.90;;
8584;SDS011;7180;52.742;11.420;2023-05-18T11:45:52;8.10;;;7.60;;
8584;SDS011;7180;52.742;11.420;2023-05-18T11:48:26;7.83;;;7.33;;
8584;SDS011;7180;52.742;11.420;2023-05-18T11:50:54;7.90;;;7.30;;
8584;SDS011;7180;52.742;11.420;2023-05-18T11:53:23;8.47;;;7.87;;
8584;SDS011;7180;52.742;11.420;2023-05-18T11:55:53;8.27;;;7.60;;
8584;SDS011;7180;52.742;11.420;2023-05-18T11:58:20;8.30;;;7.60;;
8584;SDS011;7180;52.742;11.420;2023-05-18T12:00:48;7.67;;;7.07;;
8584;SDS011;7180;52.742;11.420;2023-05-18T12:03:15;7.70;;;7.20;;
8584;SDS011;7180;52.742;11.420;2023-05-18T12:05:41;8.00;;;7.50;;
8584;SDS011;7180;52.742;11.420;2023-05-18T12:08:14;8.30;;;7.60;;
8584;SDS011;7180;52.742;11.420;2023-05-18T12:10:41;7.97;;;7.37;;
8584;SDS011;7180;52.742;11.420;2023-05-18T12:13:09;8.53;;;7.93;;
8584;SDS011;7180;52.742;11.420;2023-05-18T12:15:34;8.60;;;7.90;;
8584;SDS011;7180;52.742;11.420;2023-05-18T12:18:01;7.87;;;7.27;;
8584;SDS011;7180;52.742;11.420;2023-05-18T12:20:26;7.90;;;7.40;;
8584;SDS011;7180;52.742;11.420;2023-05-18T12:22:53;8.30;;;7.60;;
8584;SDS011;7180;52.742;11.420;2023-05-18T12:25:20;8.20;;;7.70;;
8584;SDS011;7180;52.742;11.420;2023-05-18T12:27:47;7.63;;;7.10;;
8584;SDS011;7180;52.742;11.420;2023-05-18T12:30:17;8.30;;;7.60;;
8584;SDS011;7180;52.742;11.420;2023-05-18T12:32:45;8.80;;;8.00;;
8584;SDS011;7180;52.742;11.420;2023-05-18T12:35:21;8.53;;;7.63;;
8584;SDS011;7180;52.742;11.420;2023-05-18T12:37:47;8.37;;;7.67;;
8584;SDS011;7180;52.742;11.420;2023-05-18T12:40:13;7.90;;;7.33;;
8584;SDS011;7180;52.742;11.420;2023-05-18T12:42:52;8.23;;;7.33;;
8584;SDS011;7180;52.742;11.420;2023-05-18T12:45:28;8.20;;;7.60;;
8584;SDS011;7180;52.742;11.420;2023-05-18T12:48:02;8.23;;;7.43;;
8584;SDS011;7180;52.742;11.420;2023-05-18T12:50:31;7.93;;;7.33;;
8584;SDS011;7180;52.742;11.420;2023-05-18T12:52:56;8.53;;;7.73;;
8584;SDS011;7180;52.742;11.420;2023-05-18T12:55:22;7.93;;;7.40;;
8584;SDS011;7180;52.742;11.420;2023-05-18T13:00:31;8.10;;;7.40;;
8584;SDS011;7180;52.742;11.420;2023-05-18T13:03:04;8.50;;;7.60;;
8584;SDS011;7180;52.742;11.420;2023-05-18T13:05:33;7.73;;;7.20;;
8584;SDS011;7180;52.742;11.420;2023-05-18T13:07:59;7.87;;;7.20;;
8584;SDS011;7180;52.742;11.420;2023-05-18T13:10:24;8.10;;;7.40;;
8584;SDS011;7180;52.742;11.420;2023-05-18T13:12:54;7.83;;;7.23;;
8584;SDS011;7180;52.742;11.420;2023-05-18T13:15:25;7.90;;;7.30;;
8584;SDS011;7180;52.742;11.420;2023-05-18T13:17:55;8.10;;;7.60;;
8584;SDS011;7180;52.742;11.420;2023-05-18T13:23:02;8.93;;;8.13;;
8584;SDS011;7180;52.742;11.420;2023-05-18T13:25:28;8.10;;;7.60;;
8584;SDS011;7180;52.742;11.420;2023-05-18T13:27:54;8.17;;;7.67;;
8584;SDS011;7180;52.742;11.420;2023-05-18T13:30:21;8.17;;;7.53;;
8584;SDS011;7180;52.742;11.420;2023-05-18T13:32:46;9.00;;;8.40;;
8584;SDS011;7180;52.742;11.420;2023-05-18T13:35:12;8.40;;;7.80;;
8584;SDS011;7180;52.742;11.420;2023-05-18T13:37:37;8.70;;;8.10;;
8584;SDS011;7180;52.742;11.420;2023-05-18T13:40:03;8.53;;;7.83;;
8584;SDS011;7180;52.742;11.420;2023-05-18T13:42:29;7.90;;;7.50;;
8584;SDS011;7180;52.742;11.420;2023-05-18T13:44:54;7.83;;;7.37;;
8584;SDS011;7180;52.742;11.420;2023-05-18T13:47:20;7.80;;;7.30;;
8584;SDS011;7180;52.742;11.420;2023-05-18T13:49:45;8.30;;;7.70;;
8584;SDS011;7180;52.742;11.420;2023-05-18T13:52:10;8.27;;;7.77;;
8584;SDS011;7180;52.742;11.420;2023-05-18T13:54:35;8.80;;;7.67;;
8584;SDS011;7180;52.742;11.420;2023-05-18T13:57:02;8.93;;;8.20;;
8584;SDS011;7180;52.742;11.420;2023-05-18T13:59:27;8.50;;;7.93;;
8584;SDS011;7180;52.742;11.420;2023-05-18T14:01:52;8.27;;;7.60;;
8584;SDS011;7180;52.742;11.420;2023-05-18T14:04:18;8.50;;;7.80;;
8584;SDS011;7180;52.742;11.420;2023-05-18T14:06:43;7.83;;;7.23;;
8584;SDS011;7180;52.742;11.420;2023-05-18T14:09:08;8.30;;;7.60;;
8584;SDS011;7180;52.742;11.420;2023-05-18T14:11:33;8.03;;;7.43;;
8584;SDS011;7180;52.742;11.420;2023-05-18T14:14:00;7.93;;;7.43;;
8584;SDS011;7180;52.742;11.420;2023-05-18T14:16:27;8.40;;;7.80;;
8584;SDS011;7180;52.742;11.420;2023-05-18T14:18:52;8.10;;;7.50;;
8584;SDS011;7180;52.742;11.420;2023-05-18T14:21:17;8.00;;;7.50;;
8584;SDS011;7180;52.742;11.420;2023-05-18T14:23:43;8.10;;;7.50;;
8584;SDS011;7180;52.742;11.420;2023-05-18T14:26:08;8.50;;;8.00;;
8584;SDS011;7180;52.742;11.420;2023-05-18T14:28:33;8.20;;;7.70;;
8584;SDS011;7180;52.742;11.420;2023-05-18T14:30:58;8.20;;;7.60;;
8584;SDS011;7180;52.742;11.420;2023-05-18T14:33:24;9.00;;;8.10;;
8584;SDS011;7180;52.742;11.420;2023-05-18T14:35:49;9.40;;;8.70;;
8584;SDS011;7180;52.742;11.420;2023-05-18T14:38:14;7.90;;;7.40;;
8584;SDS011;7180;52.742;11.420;2023-05-18T14:40:40;9.00;;;8.30;;
8584;SDS011;7180;52.742;11.420;2023-05-18T14:43:05;8.33;;;7.73;;
8584;SDS011;7180;52.742;11.420;2023-05-18T14:45:30;8.00;;;7.47;;
8584;SDS011;7180;52.742;11.420;2023-05-18T14:47:55;8.53;;;7.73;;
8584;SDS011;7180;52.742;11.420;2023-05-18T14:50:21;8.80;;;8.00;;
8584;SDS011;7180;52.742;11.420;2023-05-18T14:52:46;8.70;;;8.00;;
8584;SDS011;7180;52.742;11.420;2023-05-18T14:55:11;8.43;;;7.73;;
8584;SDS011;7180;52.742;11.420;2023-05-18T14:57:36;8.47;;;7.77;;
8584;SDS011;7180;52.742;11.420;2023-05-18T15:00:02;8.10;;;7.50;;
8584;SDS011;7180;52.742;11.420;2023-05-18T15:02:27;7.73;;;7.10;;
8584;SDS011;7180;52.742;11.420;2023-05-18T15:04:53;7.80;;;7.30;;
8584;SDS011;7180;52.742;11.420;2023-05-18T15:07:18;7.73;;;7.23;;
8584;SDS011;7180;52.742;11.420;2023-05-18T15:09:43;8.37;;;7.70;;
8584;SDS011;7180;52.742;11.420;2023-05-18T15:12:08;8.30;;;7.60;;
8584;SDS011;7180;52.742;11.420;2023-05-18T15:14:34;8.07;;;7.53;;
8584;SDS011;7180;52.742;11.420;2023-05-18T15:16:59;8.03;;;7.47;;
8584;SDS011;7180;52.742;11.420;2023-05-18T15:19:24;7.90;;;7.30;;